createdAt,value
2024-04-18T00:00:03.464Z,0.95
2024-04-18T00:01:02.917Z,0.93
2024-04-18T00:02:02.852Z,0.95
2024-04-18T00:03:02.912Z,0.94
2024-04-18T00:04:03.164Z,0.93
2024-04-18T00:05:03.217Z,0.94
2024-04-18T00:06:03.155Z,0.95
2024-04-18T00:07:03.226Z,0.94
2024-04-18T00:08:03.325Z,0.93
2024-04-18T00:09:03.403Z,0.95
2024-04-18T00:10:03.555Z,0.92
2024-04-18T00:11:03.576Z,0.95
2024-04-18T00:12:03.648Z,0.94
2024-04-18T00:13:03.726Z,0.92
2024-04-18T00:14:03.966Z,0.94
2024-04-18T00:15:03.893Z,0.93
2024-04-18T00:16:03.980Z,0.95
2024-04-18T00:17:04.079Z,0.94
2024-04-18T00:18:04.257Z,0.93
2024-04-18T00:19:04.235Z,0.93
2024-04-18T00:20:04.303Z,0.92
2024-04-18T00:21:04.398Z,0.95
2024-04-18T00:22:04.664Z,0.92
2024-04-18T00:23:05.467Z,0.93
2024-04-18T00:24:04.637Z,0.93
2024-04-18T00:25:04.731Z,0.93
2024-04-18T00:26:04.817Z,0.93
2024-04-18T00:27:04.906Z,0.91
2024-04-18T00:28:04.992Z,0.91
2024-04-18T00:29:05.071Z,0.93
2024-04-18T00:30:05.167Z,0.94
2024-04-18T00:31:05.261Z,0.92
2024-04-18T00:32:05.411Z,0.94
2024-04-18T00:33:05.480Z,0.92
2024-04-18T00:34:05.569Z,0.94
2024-04-18T00:35:05.600Z,0.92
2024-04-18T00:36:05.690Z,0.92
2024-04-18T00:37:05.799Z,0.93
2024-04-18T00:38:05.870Z,0.91
2024-04-18T00:39:05.967Z,0.91
2024-04-18T00:40:06.068Z,0.89
2024-04-18T00:41:06.152Z,0.91
2024-04-18T00:42:06.243Z,0.89
2024-04-18T00:43:06.333Z,0.89
2024-04-18T00:44:06.418Z,0.90
2024-04-18T00:45:06.518Z,0.91
2024-04-18T00:46:06.607Z,0.91
2024-04-18T00:47:06.707Z,0.89
2024-04-18T00:48:06.944Z,0.90
2024-04-18T00:49:06.901Z,0.91
2024-04-18T00:50:06.948Z,0.91
2024-04-18T00:51:07.048Z,0.91
2024-04-18T00:52:07.133Z,0.88
2024-04-18T00:53:07.232Z,0.91
2024-04-18T00:54:07.320Z,0.90
2024-04-18T00:55:07.411Z,0.90
2024-04-18T00:56:07.498Z,0.91
2024-04-18T00:57:07.635Z,0.90
2024-04-18T00:58:07.689Z,0.91
2024-04-18T00:59:07.768Z,0.86
2024-04-18T01:00:07.890Z,0.89
2024-04-18T01:01:08.030Z,0.88
2024-04-18T01:02:08.023Z,0.90
2024-04-18T01:03:08.118Z,0.90
2024-04-18T01:04:08.327Z,0.87
2024-04-18T01:05:08.355Z,0.89
2024-04-18T01:06:08.414Z,0.88
2024-04-18T01:07:08.526Z,0.89
2024-04-18T01:08:08.542Z,0.90
2024-04-18T01:09:08.639Z,0.89
2024-04-18T01:10:08.729Z,0.90
2024-04-18T01:11:08.811Z,0.90
2024-04-18T01:12:08.906Z,0.88
2024-04-18T01:13:08.999Z,0.89
2024-04-18T01:14:09.101Z,0.88
2024-04-18T01:15:09.175Z,0.90
2024-04-18T01:16:09.290Z,0.90
2024-04-18T01:17:09.372Z,0.88
2024-04-18T01:18:09.533Z,0.89
2024-04-18T01:19:09.543Z,0.87
2024-04-18T01:20:09.566Z,0.87
2024-04-18T01:21:09.648Z,0.90
2024-04-18T01:22:09.792Z,0.89
2024-04-18T01:23:09.802Z,0.89
2024-04-18T01:24:09.904Z,0.87
2024-04-18T01:25:09.973Z,0.88
2024-04-18T01:26:10.053Z,0.90
2024-04-18T01:27:10.143Z,0.89
2024-04-18T01:28:10.222Z,0.90
2024-04-18T01:29:10.299Z,0.90
2024-04-18T01:30:10.412Z,0.88
2024-04-18T01:31:10.524Z,0.87
2024-04-18T01:32:10.538Z,0.89
2024-04-18T01:33:10.696Z,0.89
2024-04-18T01:34:10.771Z,0.88
2024-04-18T01:35:10.796Z,0.86
2024-04-18T01:36:10.872Z,0.87
2024-04-18T01:37:10.911Z,0.86
2024-04-18T01:38:10.978Z,0.86
2024-04-18T01:39:11.128Z,0.89
2024-04-18T01:40:11.130Z,0.87
2024-04-18T01:41:11.204Z,0.87
2024-04-18T01:42:11.369Z,0.87
2024-04-18T01:43:11.346Z,0.86
2024-04-18T01:44:11.425Z,0.88
2024-04-18T01:45:11.530Z,0.88
2024-04-18T01:46:11.575Z,0.86
2024-04-18T01:47:11.638Z,0.89
2024-04-18T01:48:11.863Z,0.85
2024-04-18T01:49:11.891Z,0.87
2024-04-18T01:50:11.918Z,0.86
2024-04-18T01:51:11.933Z,0.86
2024-04-18T01:52:11.970Z,0.83
2024-04-18T01:53:12.048Z,0.85
2024-04-18T01:54:12.119Z,0.85
2024-04-18T01:55:12.174Z,0.86
2024-04-18T01:56:12.248Z,0.87
2024-04-18T01:57:12.325Z,0.87
2024-04-18T01:58:12.380Z,0.87
2024-04-18T01:59:12.446Z,0.87
2024-04-18T02:00:12.544Z,0.87
2024-04-18T02:01:12.658Z,0.87
2024-04-18T02:02:12.655Z,0.86
2024-04-18T02:03:12.848Z,0.85
2024-04-18T02:04:12.887Z,0.85
2024-04-18T02:05:12.926Z,0.88
2024-04-18T02:06:12.998Z,0.87
2024-04-18T02:07:13.009Z,0.87
2024-04-18T02:08:13.066Z,0.84
2024-04-18T02:09:13.140Z,0.87
2024-04-18T02:10:13.206Z,0.86
2024-04-18T02:11:13.380Z,0.85
2024-04-18T02:12:13.360Z,0.85
2024-04-18T02:13:13.431Z,0.85
2024-04-18T02:14:13.490Z,0.86
2024-04-18T02:15:13.618Z,0.85
2024-04-18T02:16:13.652Z,0.84
2024-04-18T02:17:13.729Z,0.85
2024-04-18T02:18:13.949Z,0.85
2024-04-18T02:19:13.851Z,0.85
2024-04-18T02:20:13.936Z,0.84
2024-04-18T02:21:14.036Z,0.86
2024-04-18T02:22:14.094Z,0.83
2024-04-18T02:23:14.161Z,0.86
2024-04-18T02:24:14.324Z,0.84
2024-04-18T02:25:14.348Z,0.84
2024-04-18T02:26:14.489Z,0.83
2024-04-18T02:27:14.532Z,0.83
2024-04-18T02:28:14.538Z,0.84
2024-04-18T02:29:14.618Z,0.86
2024-04-18T02:30:14.750Z,0.82
2024-04-18T02:31:14.780Z,0.83
2024-04-18T02:32:14.920Z,0.81
2024-04-18T02:33:15.087Z,0.82
2024-04-18T02:34:15.005Z,0.82
2024-04-18T02:35:15.091Z,0.83
2024-04-18T02:36:15.290Z,0.85
2024-04-18T02:37:15.237Z,0.84
2024-04-18T02:38:16.035Z,0.85
2024-04-18T02:39:15.414Z,0.82
2024-04-18T02:40:15.540Z,0.84
2024-04-18T02:41:15.584Z,0.83
2024-04-18T02:42:15.652Z,0.84
2024-04-18T02:43:15.714Z,0.82
2024-04-18T02:44:15.779Z,0.83
2024-04-18T02:45:15.897Z,0.84
2024-04-18T02:46:15.939Z,0.83
2024-04-18T02:47:16.045Z,0.82
2024-04-18T02:48:16.177Z,0.82
2024-04-18T02:49:16.166Z,0.83
2024-04-18T02:50:16.250Z,0.83
2024-04-18T02:51:16.359Z,0.83
2024-04-18T02:52:16.420Z,0.84
2024-04-18T02:53:16.477Z,0.82
2024-04-18T02:54:16.595Z,0.82
2024-04-18T02:55:16.640Z,0.83
2024-04-18T02:56:16.721Z,0.81
2024-04-18T02:57:16.840Z,0.81
2024-04-18T02:58:16.891Z,0.84
2024-04-18T02:59:16.940Z,0.80
2024-04-18T03:00:17.085Z,0.85
2024-04-18T03:01:17.221Z,0.81
2024-04-18T03:02:17.592Z,0.84
2024-04-18T03:03:17.302Z,0.82
2024-04-18T03:04:17.363Z,0.81
2024-04-18T03:05:17.433Z,0.82
2024-04-18T03:06:17.557Z,0.84
2024-04-18T03:07:17.655Z,0.83
2024-04-18T03:08:18.540Z,0.84
2024-04-18T03:09:17.764Z,0.84
2024-04-18T03:10:17.816Z,0.84
2024-04-18T03:11:17.932Z,0.81
2024-04-18T03:12:17.994Z,0.84
2024-04-18T03:13:18.053Z,0.83
2024-04-18T03:14:18.166Z,0.82
2024-04-18T03:15:18.238Z,0.82
2024-04-18T03:16:18.296Z,0.81
2024-04-18T03:17:18.400Z,0.81
2024-04-18T03:18:18.598Z,0.81
2024-04-18T03:19:18.676Z,0.83
2024-04-18T03:20:18.633Z,0.79
2024-04-18T03:21:18.745Z,0.81
2024-04-18T03:22:18.791Z,0.83
2024-04-18T03:23:18.879Z,0.80
2024-04-18T03:24:18.951Z,0.81
2024-04-18T03:25:19.036Z,0.79
2024-04-18T03:26:19.128Z,0.81
2024-04-18T03:27:19.253Z,0.82
2024-04-18T03:28:19.272Z,0.80
2024-04-18T03:29:19.361Z,0.80
2024-04-18T03:30:19.455Z,0.81
2024-04-18T03:31:19.516Z,0.79
2024-04-18T03:32:19.676Z,0.82
2024-04-18T03:33:19.848Z,0.81
2024-04-18T03:34:19.758Z,0.79
2024-04-18T03:35:19.833Z,0.80
2024-04-18T03:36:19.912Z,0.80
2024-04-18T03:37:19.991Z,0.82
2024-04-18T03:38:20.081Z,0.79
2024-04-18T03:39:20.235Z,0.81
2024-04-18T03:40:20.234Z,0.81
2024-04-18T03:41:20.563Z,0.80
2024-04-18T03:42:20.408Z,0.81
2024-04-18T03:43:20.496Z,0.81
2024-04-18T03:44:20.578Z,0.81
2024-04-18T03:45:20.685Z,0.80
2024-04-18T03:46:20.730Z,0.81
2024-04-18T03:47:20.855Z,0.79
2024-04-18T03:48:21.027Z,0.80
2024-04-18T03:49:21.004Z,0.83
2024-04-18T03:50:21.066Z,0.79
2024-04-18T03:51:21.155Z,0.81
2024-04-18T03:52:21.244Z,0.81
2024-04-18T03:53:21.317Z,0.80
2024-04-18T03:54:21.476Z,0.80
2024-04-18T03:55:21.547Z,0.80
2024-04-18T03:56:21.545Z,0.79
2024-04-18T03:57:21.671Z,0.80
2024-04-18T03:58:21.698Z,0.79
2024-04-18T03:59:21.774Z,0.80
2024-04-18T04:00:21.882Z,0.78
2024-04-18T04:01:22.084Z,0.81
2024-04-18T04:02:22.031Z,0.80
2024-04-18T04:03:22.160Z,0.80
2024-04-18T04:04:22.342Z,0.79
2024-04-18T04:05:22.264Z,0.80
2024-04-18T04:06:22.568Z,0.79
2024-04-18T04:07:22.431Z,0.79
2024-04-18T04:08:22.516Z,0.79
2024-04-18T04:09:22.654Z,0.81
2024-04-18T04:10:22.690Z,0.80
2024-04-18T04:11:22.907Z,0.79
2024-04-18T04:12:22.914Z,0.79
2024-04-18T04:13:22.949Z,0.78
2024-04-18T04:14:23.011Z,0.78
2024-04-18T04:15:24.094Z,0.79
2024-04-18T04:16:23.186Z,0.79
2024-04-18T04:17:23.292Z,0.77
2024-04-18T04:18:23.400Z,0.78
2024-04-18T04:19:23.482Z,0.78
2024-04-18T04:20:23.512Z,0.77
2024-04-18T04:21:23.679Z,0.79
2024-04-18T04:22:23.679Z,0.77
2024-04-18T04:23:23.771Z,0.79
2024-04-18T04:24:23.894Z,0.77
2024-04-18T04:25:23.936Z,0.77
2024-04-18T04:26:24.019Z,0.79
2024-04-18T04:27:24.129Z,0.77
2024-04-18T04:28:24.193Z,0.79
2024-04-18T04:29:24.274Z,0.78
2024-04-18T04:30:24.381Z,0.79
2024-04-18T04:31:24.446Z,0.78
2024-04-18T04:32:24.682Z,0.78
2024-04-18T04:33:24.663Z,0.77
2024-04-18T04:34:24.699Z,0.78
2024-04-18T04:35:24.796Z,0.78
2024-04-18T04:36:25.698Z,0.77
2024-04-18T04:37:24.936Z,0.79
2024-04-18T04:38:25.020Z,0.79
2024-04-18T04:39:25.106Z,0.79
2024-04-18T04:40:25.185Z,0.76
2024-04-18T04:41:25.262Z,0.79
2024-04-18T04:42:32.640Z,0.50
2024-04-18T04:43:32.603Z,0.50
2024-04-18T04:44:32.626Z,0.50
2024-04-18T04:45:32.680Z,0.50
2024-04-18T04:46:32.660Z,0.50
2024-04-18T04:47:32.722Z,0.51
2024-04-18T04:48:35.359Z,0.51
2024-04-18T04:49:32.781Z,0.50
2024-04-18T04:50:32.761Z,0.50
2024-04-18T04:51:32.794Z,0.50
2024-04-18T04:52:32.784Z,0.49
2024-04-18T04:53:32.803Z,0.49
2024-04-18T04:54:32.828Z,0.50
2024-04-18T04:55:32.846Z,0.51
2024-04-18T04:56:32.863Z,0.52
2024-04-18T04:57:33.073Z,0.52
2024-04-18T04:58:32.903Z,0.51
2024-04-18T04:59:33.679Z,0.52
2024-04-18T05:00:32.968Z,0.51
2024-04-18T05:01:33.050Z,0.52
2024-04-18T05:02:33.039Z,0.52
2024-04-18T05:03:33.078Z,0.51
2024-04-18T05:04:33.042Z,0.51
2024-04-18T05:05:33.065Z,0.51
2024-04-18T05:06:33.099Z,0.52
2024-04-18T05:07:33.205Z,0.51
2024-04-18T05:08:33.110Z,0.52
2024-04-18T05:09:33.245Z,0.51
2024-04-18T05:10:33.146Z,0.51
2024-04-18T05:11:33.200Z,0.51
2024-04-18T05:12:33.716Z,0.52
2024-04-18T05:13:33.196Z,0.52
2024-04-18T05:14:33.204Z,0.53
2024-04-18T05:15:33.241Z,0.51
2024-04-18T05:16:33.322Z,0.51
2024-04-18T05:17:33.276Z,0.52
2024-04-18T05:18:33.367Z,0.52
2024-04-18T05:19:33.307Z,0.52
2024-04-18T05:20:33.501Z,0.51
2024-04-18T05:21:33.470Z,0.51
2024-04-18T05:22:33.513Z,0.52
2024-04-18T05:23:33.424Z,0.53
2024-04-18T05:24:33.538Z,0.55
2024-04-18T05:25:33.470Z,0.55
2024-04-18T05:26:33.670Z,0.59
2024-04-18T05:27:34.228Z,0.61
2024-04-18T05:28:33.691Z,0.65
2024-04-18T05:29:33.790Z,0.69
2024-04-18T05:30:33.935Z,0.70
2024-04-18T05:31:33.957Z,0.76
2024-04-18T05:32:34.086Z,0.78
2024-04-18T05:33:34.218Z,0.80
2024-04-18T05:34:34.156Z,0.82
2024-04-18T05:35:34.227Z,0.83
2024-04-18T05:36:34.416Z,0.85
2024-04-18T05:37:34.364Z,0.87
2024-04-18T05:38:34.428Z,0.89
2024-04-18T05:39:34.512Z,0.91
2024-04-18T05:40:34.567Z,0.91
2024-04-18T05:41:34.654Z,0.92
2024-04-18T05:42:34.761Z,0.94
2024-04-18T05:43:35.538Z,0.96
2024-04-18T05:44:34.854Z,0.92
2024-04-18T05:45:34.939Z,0.94
2024-04-18T05:46:35.013Z,0.96
2024-04-18T05:47:35.176Z,0.96
2024-04-18T05:48:35.171Z,0.96
2024-04-18T05:49:35.224Z,0.97
2024-04-18T05:50:38.002Z,0.97
2024-04-18T05:51:36.153Z,0.98
2024-04-18T05:52:35.403Z,0.98
2024-04-18T05:53:35.354Z,0.98
2024-04-18T05:54:35.457Z,0.99
2024-04-18T05:55:35.375Z,0.98
2024-04-18T05:56:35.397Z,0.98
2024-04-18T05:57:35.442Z,1.00
2024-04-18T05:58:35.498Z,1.00
2024-04-18T05:59:35.438Z,0.98
2024-04-18T06:00:35.481Z,0.97
2024-04-18T06:01:35.756Z,0.99
2024-04-18T06:02:35.510Z,1.00
2024-04-18T06:03:35.534Z,0.98
2024-04-18T06:04:35.586Z,0.99
2024-04-18T06:05:35.528Z,0.97
2024-04-18T06:06:35.792Z,0.98
2024-04-18T06:07:35.558Z,0.99
2024-04-18T06:08:35.574Z,0.97
2024-04-18T06:09:35.679Z,0.97
2024-04-18T06:10:35.604Z,0.99
2024-04-18T06:11:35.656Z,0.98
2024-04-18T06:12:35.672Z,0.98
2024-04-18T06:13:35.630Z,0.98
2024-04-18T06:14:35.676Z,0.99
2024-04-18T06:15:36.738Z,0.96
2024-04-18T06:16:35.853Z,0.99
2024-04-18T06:17:35.913Z,0.98
2024-04-18T06:18:36.074Z,0.98
2024-04-18T06:19:36.066Z,0.95
2024-04-18T06:20:36.135Z,0.97
2024-04-18T06:21:36.252Z,0.95
2024-04-18T06:22:36.305Z,0.96
2024-04-18T06:23:36.373Z,0.94
2024-04-18T06:24:37.224Z,0.98
2024-04-18T06:25:36.538Z,0.98
2024-04-18T06:26:36.632Z,0.97
2024-04-18T06:27:36.818Z,1.04
2024-04-18T06:28:36.781Z,1.09
2024-04-18T06:29:36.852Z,1.13
2024-04-18T06:30:36.946Z,1.17
2024-04-18T06:31:37.005Z,1.22
2024-04-18T06:32:37.043Z,1.27
2024-04-18T06:33:37.226Z,1.39
2024-04-18T06:34:37.214Z,1.52
2024-04-18T06:35:37.177Z,1.60
2024-04-18T06:36:37.158Z,1.74
2024-04-18T06:37:37.140Z,1.83
2024-04-18T06:38:37.163Z,1.92
2024-04-18T06:39:37.230Z,2.04
2024-04-18T06:40:37.267Z,2.21
2024-04-18T06:41:37.219Z,2.37
2024-04-18T06:42:37.320Z,2.58
2024-04-18T06:43:37.391Z,2.72
2024-04-18T06:44:37.424Z,2.87
2024-04-18T06:45:37.466Z,3.07
2024-04-18T06:46:45.237Z,3.27
2024-04-18T06:47:38.504Z,3.28
2024-04-18T06:48:37.551Z,3.34
2024-04-18T06:49:37.475Z,3.46
2024-04-18T06:50:37.468Z,3.77
2024-04-18T06:51:37.501Z,4.40
2024-04-18T06:52:37.541Z,4.70
2024-04-18T06:53:37.557Z,4.54
2024-04-18T06:54:37.539Z,3.85
2024-04-18T06:55:37.519Z,3.71
2024-04-18T06:56:37.527Z,3.46
2024-04-18T06:57:37.610Z,3.23
2024-04-18T06:58:37.600Z,3.02
2024-04-18T06:59:37.661Z,2.77
2024-04-18T07:00:37.835Z,2.60
2024-04-18T07:01:37.807Z,2.47
2024-04-18T07:02:37.796Z,2.36
2024-04-18T07:03:37.931Z,2.29
2024-04-18T07:04:37.952Z,2.19
2024-04-18T07:05:37.937Z,2.12
2024-04-18T07:06:37.975Z,2.06
2024-04-18T07:07:37.966Z,2.05
2024-04-18T07:08:38.065Z,2.01
2024-04-18T07:09:38.128Z,1.97
2024-04-18T07:10:38.120Z,1.99
2024-04-18T07:11:38.087Z,1.94
2024-04-18T07:12:38.114Z,1.96
2024-04-18T07:13:38.122Z,1.91
2024-04-18T07:14:38.149Z,1.90
2024-04-18T07:15:38.198Z,1.86
2024-04-18T07:16:38.233Z,1.84
2024-04-18T07:17:38.360Z,1.80
2024-04-18T07:18:38.445Z,1.62
2024-04-18T07:19:38.421Z,1.51
2024-04-18T07:20:39.241Z,1.49
2024-04-18T07:21:38.517Z,1.37
2024-04-18T07:22:39.236Z,1.35
2024-04-18T07:23:38.574Z,1.26
2024-04-18T07:24:38.658Z,1.10
2024-04-18T07:25:38.673Z,0.86
2024-04-18T07:26:38.757Z,0.76
2024-04-18T07:27:38.891Z,0.74
2024-04-18T07:28:38.907Z,0.67
2024-04-18T07:29:39.002Z,0.63
2024-04-18T07:30:39.064Z,0.62
2024-04-18T07:31:39.105Z,0.60
2024-04-18T07:32:39.191Z,0.56
2024-04-18T07:33:39.397Z,0.50
2024-04-18T07:34:39.305Z,0.50
2024-04-18T07:35:39.383Z,0.50
2024-04-18T07:36:39.511Z,0.49
2024-04-18T07:37:39.604Z,0.50
2024-04-18T07:38:39.683Z,0.50
2024-04-18T07:39:39.788Z,0.50
2024-04-18T07:40:39.806Z,0.50
2024-04-18T07:41:39.883Z,0.50
2024-04-18T07:42:40.022Z,0.51
2024-04-18T07:43:39.995Z,0.50
2024-04-18T07:44:40.038Z,0.51
2024-04-18T07:45:40.192Z,0.52
2024-04-18T07:46:40.235Z,0.54
2024-04-18T07:47:40.460Z,0.55
2024-04-18T07:48:40.462Z,0.55
2024-04-18T07:49:43.417Z,0.54
2024-04-18T07:50:40.542Z,0.54
2024-04-18T07:51:40.644Z,0.54
2024-04-18T07:52:42.885Z,0.54
2024-04-18T07:53:41.650Z,0.54
2024-04-18T07:54:40.725Z,0.54
2024-04-18T07:55:40.719Z,0.55
2024-04-18T07:56:41.409Z,0.56
2024-04-18T07:57:41.387Z,0.60
2024-04-18T07:58:41.293Z,0.59
2024-04-18T07:59:41.590Z,0.58
2024-04-18T08:00:42.246Z,0.58
2024-04-18T08:01:42.482Z,0.55
2024-04-18T08:02:42.435Z,0.55
2024-04-18T08:03:48.189Z,0.56
2024-04-18T08:05:44.019Z,0.57
2024-04-18T08:06:43.866Z,0.57
2024-04-18T08:07:43.967Z,0.57
2024-04-18T08:08:44.214Z,0.57
2024-04-18T08:09:44.204Z,0.57
2024-04-18T08:10:53.214Z,0.57
2024-04-18T08:12:45.659Z,0.57
2024-04-18T08:13:45.527Z,0.57
2024-04-18T08:16:41.854Z,0.57
2024-04-18T08:17:41.906Z,0.60
2024-04-18T08:18:41.750Z,0.66
2024-04-18T08:19:41.799Z,0.76
2024-04-18T08:20:41.821Z,0.92
2024-04-18T08:21:41.864Z,1.06
2024-04-18T08:22:41.886Z,1.14
2024-04-18T08:23:41.911Z,1.14
2024-04-18T08:24:41.943Z,1.11
2024-04-18T08:25:42.091Z,1.11
2024-04-18T08:26:42.052Z,1.06
2024-04-18T08:27:42.070Z,1.08
2024-04-18T08:28:42.043Z,1.08
2024-04-18T08:29:42.103Z,1.06
2024-04-18T08:30:43.815Z,1.07
2024-04-18T08:31:42.134Z,1.06
2024-04-18T08:32:44.238Z,1.07
2024-04-18T08:33:46.782Z,1.06
2024-04-18T08:34:45.137Z,1.06
2024-04-18T08:35:42.209Z,1.07
2024-04-18T08:36:42.205Z,1.04
2024-04-18T08:37:42.219Z,1.06
2024-04-18T08:38:42.276Z,1.04
2024-04-18T08:39:42.768Z,1.03
2024-04-18T08:40:42.277Z,1.06
2024-04-18T08:41:44.172Z,1.05
2024-04-18T08:42:42.337Z,1.11
2024-04-18T08:43:45.089Z,1.06
2024-04-18T08:44:42.329Z,1.07
2024-04-18T08:45:42.474Z,1.07
2024-04-18T08:46:42.371Z,1.07
2024-04-18T08:47:42.526Z,1.08
2024-04-18T08:48:42.518Z,1.08
2024-04-18T08:49:42.434Z,1.09
2024-04-18T08:50:42.520Z,1.07
2024-04-18T08:51:42.490Z,1.10
2024-04-18T08:52:42.484Z,1.10
2024-04-18T08:53:42.498Z,1.07
2024-04-18T08:54:42.734Z,1.08
2024-04-18T08:55:42.588Z,1.10
2024-04-18T08:56:43.216Z,1.08
2024-04-18T08:57:42.596Z,1.12
2024-04-18T08:58:42.682Z,1.10
2024-04-18T08:59:42.627Z,1.12
2024-04-18T09:00:42.704Z,1.10
2024-04-18T09:01:42.662Z,1.10
2024-04-18T09:02:42.700Z,1.11
2024-04-18T09:03:42.697Z,1.14
2024-04-18T09:04:42.762Z,1.15
2024-04-18T09:05:42.871Z,1.13
2024-04-18T09:06:42.876Z,1.11
2024-04-18T09:07:42.918Z,1.09
2024-04-18T09:08:42.986Z,1.12
2024-04-18T09:09:43.042Z,1.11
2024-04-18T09:10:43.145Z,1.15
2024-04-18T09:11:43.189Z,1.13
2024-04-18T09:12:43.304Z,1.14
2024-04-18T09:13:45.209Z,1.15
2024-04-18T09:14:43.417Z,1.14
2024-04-18T09:15:43.429Z,1.15
2024-04-18T09:16:43.488Z,1.15
2024-04-18T09:17:43.599Z,1.15
2024-04-18T09:18:43.765Z,1.14
2024-04-18T09:19:43.691Z,1.16
2024-04-18T09:20:43.780Z,1.19
2024-04-18T09:22:43.940Z,1.24
2024-04-18T09:23:44.010Z,1.27
2024-04-18T09:24:44.094Z,1.35
2024-04-18T09:25:45.816Z,1.37
2024-04-18T09:26:44.157Z,1.44
2024-04-18T09:27:44.169Z,1.52
2024-04-18T09:28:44.196Z,1.62
2024-04-18T09:29:44.215Z,1.72
2024-04-18T09:30:44.846Z,1.79
2024-04-18T09:31:44.251Z,1.93
2024-04-18T09:32:44.336Z,2.01
2024-04-18T09:33:44.415Z,2.24
2024-04-18T09:34:44.297Z,2.35
2024-04-18T09:35:44.358Z,2.53
2024-04-18T09:36:44.483Z,2.77
2024-04-18T09:37:50.026Z,2.95
2024-04-18T09:38:45.393Z,2.96
2024-04-18T09:39:44.425Z,3.03
2024-04-18T09:40:44.425Z,3.23
2024-04-18T09:41:44.444Z,3.57
2024-04-18T09:42:44.417Z,4.24
2024-04-18T09:43:44.376Z,3.57
2024-04-18T09:44:44.430Z,2.60
2024-04-18T09:45:44.475Z,1.92
2024-04-18T09:46:44.447Z,1.57
2024-04-18T09:47:44.915Z,1.30
2024-04-18T09:48:44.679Z,1.06
2024-04-18T09:49:45.305Z,0.95
2024-04-18T09:50:44.575Z,0.88
2024-04-18T09:51:44.622Z,0.86
2024-04-18T09:52:44.688Z,0.82
2024-04-18T09:53:45.302Z,0.85
2024-04-18T09:54:44.940Z,0.86
2024-04-18T09:55:46.759Z,0.88
2024-04-18T09:56:44.982Z,0.93
2024-04-18T09:57:45.060Z,0.99
2024-04-18T09:58:45.743Z,1.04
2024-04-18T09:59:45.140Z,1.12
2024-04-18T10:00:46.853Z,1.20
2024-04-18T10:01:46.159Z,1.21
2024-04-18T10:02:45.139Z,1.23
2024-04-18T10:03:45.180Z,1.29
2024-04-18T10:04:45.135Z,1.41
2024-04-18T10:05:45.128Z,1.63
2024-04-18T10:06:45.161Z,1.81
2024-04-18T10:07:47.328Z,1.82
2024-04-18T10:08:47.858Z,1.87
2024-04-18T10:09:45.213Z,1.99
2024-04-18T10:10:45.209Z,2.30
2024-04-18T10:11:45.223Z,2.77
2024-04-18T10:12:45.259Z,2.91
2024-04-18T10:13:45.188Z,3.04
2024-04-18T10:14:45.204Z,3.18
2024-04-18T10:15:45.299Z,3.29
2024-04-18T10:16:45.220Z,3.44
2024-04-18T10:17:45.259Z,3.48
2024-04-18T10:18:45.342Z,3.69
2024-04-18T10:19:45.236Z,3.63
2024-04-18T10:20:45.255Z,3.80
2024-04-18T10:22:47.791Z,3.85
2024-04-18T10:23:45.287Z,3.86
2024-04-18T10:24:45.879Z,3.90
2024-04-18T10:25:45.288Z,3.95
2024-04-18T10:26:45.309Z,4.11
2024-04-18T10:27:45.313Z,4.15
2024-04-18T10:28:45.329Z,4.18
2024-04-18T10:29:45.323Z,4.23
2024-04-18T10:30:45.333Z,4.21
2024-04-18T10:31:45.342Z,4.20
2024-04-18T10:32:45.388Z,4.06
2024-04-18T10:33:45.571Z,4.11
2024-04-18T10:34:45.383Z,4.06
2024-04-18T10:35:45.382Z,4.08
2024-04-18T10:36:45.524Z,4.15
2024-04-18T10:37:45.413Z,4.02
2024-04-18T10:38:45.407Z,4.09
2024-04-18T10:39:45.569Z,4.00
2024-04-18T10:40:45.515Z,3.98
2024-04-18T10:41:45.466Z,3.87
2024-04-18T10:42:45.521Z,3.97
2024-04-18T10:43:45.462Z,3.89
2024-04-18T10:44:46.320Z,3.81
2024-04-18T10:45:45.560Z,3.79
2024-04-18T10:46:45.493Z,3.78
2024-04-18T10:47:45.690Z,3.83
2024-04-18T10:48:45.682Z,3.77
2024-04-18T10:49:45.536Z,3.76
2024-04-18T10:50:45.539Z,3.77
2024-04-18T10:51:45.565Z,3.68
2024-04-18T10:52:45.542Z,3.66
2024-04-18T10:53:45.589Z,3.66
2024-04-18T10:54:45.583Z,3.61
2024-04-18T10:55:45.595Z,3.61
2024-04-18T10:56:45.590Z,3.55
2024-04-18T10:57:45.593Z,3.61
2024-04-18T10:58:45.607Z,3.60
2024-04-18T10:59:45.625Z,3.55
2024-04-18T11:00:45.775Z,3.59
2024-04-18T11:01:45.656Z,3.51
2024-04-18T11:02:45.643Z,3.45
2024-04-18T11:03:45.739Z,3.42
2024-04-18T11:04:45.664Z,3.37
2024-04-18T11:05:45.777Z,3.34
2024-04-18T11:06:45.749Z,3.34
2024-04-18T11:07:45.702Z,3.25
2024-04-18T11:08:45.708Z,3.33
2024-04-18T11:09:45.773Z,3.30
2024-04-18T11:10:45.779Z,3.26
2024-04-18T11:11:45.733Z,3.15
2024-04-18T11:12:45.750Z,3.20
2024-04-18T11:13:45.756Z,3.12
2024-04-18T11:14:45.769Z,3.06
2024-04-18T11:15:45.862Z,3.13
2024-04-18T11:16:47.305Z,3.05
2024-04-18T11:17:45.852Z,3.07
2024-04-18T11:18:46.938Z,3.01
2024-04-18T11:19:45.880Z,3.07
2024-04-18T11:20:45.812Z,3.02
2024-04-18T11:21:46.819Z,3.02
2024-04-18T11:22:53.453Z,3.03
2024-04-18T11:23:50.102Z,3.02
2024-04-18T11:24:45.955Z,3.02
2024-04-18T11:25:45.873Z,3.03
2024-04-18T11:26:45.867Z,3.03
2024-04-18T11:27:45.904Z,3.01
2024-04-18T11:28:46.852Z,3.00
2024-04-18T11:29:45.896Z,3.02
2024-04-18T11:30:45.964Z,2.97
2024-04-18T11:31:45.962Z,2.95
2024-04-18T11:32:46.944Z,2.94
2024-04-18T11:33:45.959Z,2.91
2024-04-18T11:34:47.144Z,2.87
2024-04-18T11:35:45.986Z,2.93
2024-04-18T11:36:46.036Z,2.99
2024-04-18T11:37:46.029Z,2.91
2024-04-18T11:38:46.047Z,2.95
2024-04-18T11:39:46.117Z,2.91
2024-04-18T11:40:46.185Z,2.82
2024-04-18T11:41:46.174Z,2.81
2024-04-18T11:42:46.210Z,2.83
2024-04-18T11:43:47.173Z,2.86
2024-04-18T11:44:47.155Z,2.86
2024-04-18T11:45:46.257Z,2.86
2024-04-18T11:46:46.189Z,2.78
2024-04-18T11:47:46.418Z,2.77
2024-04-18T11:48:46.396Z,2.80
2024-04-18T11:49:46.183Z,2.74
2024-04-18T11:50:46.312Z,2.71
2024-04-18T11:51:46.189Z,2.70
2024-04-18T11:52:46.204Z,2.69
2024-04-18T11:53:46.220Z,2.68
2024-04-18T11:54:46.188Z,2.60
2024-04-18T11:55:46.244Z,2.61
2024-04-18T11:56:46.223Z,2.60
2024-04-18T11:57:46.326Z,2.60
2024-04-18T11:58:46.254Z,2.56
2024-04-18T11:59:46.367Z,2.56
2024-04-18T12:00:46.266Z,2.60
2024-04-18T12:01:46.287Z,2.48
2024-04-18T12:02:46.331Z,2.48
2024-04-18T12:03:46.441Z,2.45
2024-04-18T12:04:46.307Z,2.51
2024-04-18T12:05:46.277Z,2.42
2024-04-18T12:06:46.337Z,2.45
2024-04-18T12:07:46.328Z,2.54
2024-04-18T12:08:48.519Z,2.54
2024-04-18T12:09:46.315Z,2.55
2024-04-18T12:10:46.376Z,2.60
2024-04-18T12:11:46.364Z,2.75
2024-04-18T12:12:47.296Z,2.80
2024-04-18T12:13:46.383Z,2.96
2024-04-18T12:14:48.282Z,2.70
2024-04-18T12:15:46.607Z,2.44
2024-04-18T12:16:46.872Z,2.09
2024-04-18T12:17:46.402Z,1.84
2024-04-18T12:18:46.458Z,1.51
2024-04-18T12:19:47.372Z,1.39
2024-04-18T12:20:46.575Z,1.14
2024-04-18T12:21:46.655Z,1.06
2024-04-18T12:22:46.818Z,0.92
2024-04-18T12:23:46.809Z,0.76
2024-04-18T12:24:46.875Z,0.71
2024-04-18T12:25:46.943Z,0.63
2024-04-18T12:26:47.051Z,0.56
2024-04-18T12:27:47.111Z,0.50
2024-04-18T12:28:47.211Z,0.50
2024-04-18T12:29:47.307Z,0.50
2024-04-18T12:30:47.437Z,0.50
2024-04-18T12:31:48.794Z,0.50
2024-04-18T12:32:47.467Z,0.50
2024-04-18T12:33:47.487Z,0.50
2024-04-18T12:34:47.460Z,0.50
2024-04-18T12:35:47.478Z,0.50
2024-04-18T12:36:47.530Z,0.51
2024-04-18T12:37:47.525Z,0.52
2024-04-18T12:38:47.552Z,0.51
2024-04-18T12:39:47.646Z,0.52
2024-04-18T12:40:47.686Z,0.55
2024-04-18T12:41:47.633Z,0.56
2024-04-18T12:42:47.660Z,0.58
2024-04-18T12:43:47.760Z,0.63
2024-04-18T12:44:47.803Z,0.65
2024-04-18T12:45:48.034Z,0.69
2024-04-18T12:46:47.913Z,0.72
2024-04-18T12:47:48.090Z,0.78
2024-04-18T12:48:48.134Z,0.82
2024-04-18T12:49:48.166Z,0.88
2024-04-18T12:50:48.175Z,0.94
2024-04-18T12:51:48.360Z,0.98
2024-04-18T12:52:48.286Z,1.05
2024-04-18T12:53:48.342Z,1.14
2024-04-18T12:54:48.445Z,1.20
2024-04-18T12:55:48.510Z,1.29
2024-04-18T12:56:48.723Z,1.44
2024-04-18T12:57:48.616Z,1.56
2024-04-18T12:58:48.748Z,1.70
2024-04-18T12:59:48.743Z,1.79
2024-04-18T13:00:48.942Z,1.96
2024-04-18T13:01:48.875Z,2.05
2024-04-18T13:02:51.984Z,2.17
2024-04-18T13:03:50.056Z,2.30
2024-04-18T13:04:48.934Z,2.30
2024-04-18T13:05:48.936Z,2.32
2024-04-18T13:06:49.839Z,2.39
2024-04-18T13:07:48.940Z,2.48
2024-04-18T13:08:48.915Z,2.69
2024-04-18T13:09:48.956Z,2.80
2024-04-18T13:10:48.955Z,2.82
2024-04-18T13:11:48.931Z,2.96
2024-04-18T13:12:48.918Z,2.96
2024-04-18T13:13:48.931Z,2.94
2024-04-18T13:14:49.034Z,2.99
2024-04-18T13:15:52.589Z,3.02
2024-04-18T13:16:49.087Z,3.03
2024-04-18T13:17:49.098Z,3.05
2024-04-18T13:18:49.093Z,3.07
2024-04-18T13:19:49.054Z,3.12
2024-04-18T13:20:49.009Z,3.14
2024-04-18T13:21:49.015Z,3.23
2024-04-18T13:22:49.017Z,3.18
2024-04-18T13:23:49.119Z,3.09
2024-04-18T13:24:49.037Z,3.12